This is the latest recevied weather packets stored in our database for station/object OH2CHY-10. If no packets are shown the sender has not sent any weather packets the latest 10 day(s).
| Time | Temp. | Humidity | Pressure | Rain* | Wind** | Luminosity | Snow |
|---|---|---|---|---|---|---|---|
| 1777827550 | 16.67° C | 43% | 1007.5 hPa | - | - | - | - |
| 1777826650 | 16.67° C | 43% | 1007.5 hPa | - | - | - | - |
| 1777825750 | 17.22° C | 42% | 1007.4 hPa | - | - | - | - |
| 1777824850 | 17.78° C | 40% | 1007.6 hPa | - | - | - | - |
| 1777823950 | 17.78° C | 40% | 1007.5 hPa | - | - | - | - |
| 1777823049 | 18.33° C | 39% | 1007.6 hPa | - | - | - | - |
| 1777822149 | 18.33° C | 39% | 1007.6 hPa | - | - | - | - |
| 1777821249 | 20° C | 37% | 1007.5 hPa | - | - | - | - |
| 1777820349 | 20° C | 37% | 1007.5 hPa | - | - | - | - |
| 1777819449 | 20° C | 36% | 1007.5 hPa | - | - | - | - |
| 1777818549 | 20° C | 35% | 1007.6 hPa | - | - | - | - |
| 1777817649 | 20° C | 37% | 1007.6 hPa | - | - | - | - |
| 1777816749 | 20° C | 35% | 1007.6 hPa | - | - | - | - |
| 1777815849 | 22.78° C | 33% | 1007.6 hPa | - | - | - | - |
| 1777814949 | 23.89° C | 33% | 1007.6 hPa | - | - | - | - |
| 1777814049 | 21.67° C | 34% | 1007.5 hPa | - | - | - | - |
| 1777813149 | 22.22° C | 35% | 1007.6 hPa | - | - | - | - |
| 1777812249 | 22.22° C | 35% | 1007.6 hPa | - | - | - | - |
| 1777811349 | 22.78° C | 36% | 1007.7 hPa | - | - | - | - |
| 1777810448 | 22.22° C | 37% | 1007.8 hPa | - | - | - | - |
| 1777809548 | 20.56° C | 42% | 1007.8 hPa | - | - | - | - |
| 1777808648 | 18.33° C | 43% | 1007.9 hPa | - | - | - | - |
| 1777807748 | 17.22° C | 45% | 1007.9 hPa | - | - | - | - |
| 1777806848 | 17.22° C | 46% | 1007.9 hPa | - | - | - | - |
| 1777805948 | 18.33° C | 43% | 1007.8 hPa | - | - | - | - |
* Rain since midnight (hover to see other rain measurements)
** Current wind speed in m/s (hover to see current wind gust speed)